If you wish to contribute or participate in the discussions about articles you are invited to join SKYbrary as a registered user

 Actions

Qazvin Airport

From SKYbrary Wiki

OIIK
Airport
ICAO: OIIK – IATA: GZW
Summary
Name Qazvin Airport
Region Middle East
Territory Iran IR.gif
Location Qazvin, Qazvin Province
Serving Qazvin
Elevation 1,275.283 m
4,184 ft1,275.283 m
Coordinates 36° 14' 34.77" N, 50° 2' 49.57" E
Runways
Designator Length Width Surface ROPS
10/28 1119 m3,671.26 ft
40 m131.234 ft
ASP /


METAR
Observation OIIK 191300Z 14012KT 9999 SCT035TCU 18/06 Q1008
Station Ghazvin
Date/Time 19 April 2019 13:00:00
Wind direction 140°
Wind speed 12 kts
Lowest cloud amount scattered clouds
Temperature 18°C
Dew point 6°C
Humidity 45%
QNH 1008 hPa
Weather condition n/a

Airport located on the eastern outskirts of the city of Qazvin, Iran.

Climatology

Warm Mediterranean climate (Köppen climate classification Csa).

Maps

Terrain

Loading map...

Airport Layout

Loading map...


Accidents & Serious Incidents at or in vicinity of OIIK

None on SKYbrary